createdAt,value
2022-08-29T00:03:19.678Z,17.69
2022-08-29T00:08:25.987Z,17.63
2022-08-29T00:13:31.587Z,17.59
2022-08-29T00:18:37.898Z,17.60
2022-08-29T00:23:47.973Z,17.59
2022-08-29T00:28:53.540Z,17.55
2022-08-29T00:33:59.139Z,17.52
2022-08-29T00:39:09.213Z,17.49
2022-08-29T00:44:13.716Z,17.44
2022-08-29T00:49:31.382Z,17.43
2022-08-29T00:54:38.071Z,17.46
2022-08-29T00:59:43.858Z,17.42
2022-08-29T01:04:49.390Z,17.44
2022-08-29T01:09:55.470Z,17.40
2022-08-29T01:15:04.299Z,17.35
2022-08-29T01:20:32.297Z,17.35
2022-08-29T01:25:40.938Z,17.30
2022-08-29T01:31:04.425Z,17.24
2022-08-29T01:36:12.234Z,17.19
2022-08-29T01:41:20.831Z,17.16
2022-08-29T01:46:29.745Z,17.16
2022-08-29T01:51:36.891Z,17.19
2022-08-29T01:56:45.282Z,17.14
2022-08-29T02:02:02.869Z,17.09
2022-08-29T02:07:12.541Z,17.09
2022-08-29T02:12:17.385Z,17.07
2022-08-29T02:17:23.876Z,17.05
2022-08-29T02:22:29.380Z,17.08
2022-08-29T02:27:36.585Z,17.07
2022-08-29T02:32:42.120Z,17.06
2022-08-29T02:37:47.685Z,17.06
2022-08-29T02:42:54.947Z,17.02
2022-08-29T02:48:00.851Z,16.99
2022-08-29T02:53:06.522Z,16.96
2022-08-29T02:58:12.046Z,16.98
2022-08-29T03:03:18.061Z,16.98
2022-08-29T03:08:23.630Z,16.95
2022-08-29T03:13:29.196Z,16.95
2022-08-29T03:18:34.864Z,16.90
2022-08-29T03:23:40.422Z,16.91
2022-08-29T03:28:46.898Z,16.92
2022-08-29T03:33:52.776Z,16.93
2022-08-29T03:38:58.247Z,16.99
2022-08-29T03:44:04.068Z,17.02
2022-08-29T03:49:10.095Z,17.03
2022-08-29T03:54:15.671Z,17.06
2022-08-29T03:59:21.251Z,17.11
2022-08-29T04:04:45.432Z,17.11
2022-08-29T04:09:51.105Z,17.13
2022-08-29T04:14:56.651Z,17.09
2022-08-29T04:20:02.149Z,17.08
2022-08-29T04:25:10.713Z,17.01
2022-08-29T04:30:20.168Z,16.98
2022-08-29T04:35:26.290Z,16.98
2022-08-29T04:40:32.441Z,16.98
2022-08-29T04:45:40.682Z,17.02
2022-08-29T04:50:46.357Z,17.04
2022-08-29T04:56:09.638Z,17.08
2022-08-29T05:01:18.554Z,17.15
2022-08-29T05:06:25.885Z,17.15
2022-08-29T05:11:33.225Z,17.24
2022-08-29T05:16:39.197Z,17.29
2022-08-29T05:21:45.144Z,17.38
2022-08-29T05:26:51.639Z,17.45
2022-08-29T05:32:02.112Z,17.53
2022-08-29T05:37:14.792Z,17.60
2022-08-29T05:42:23.067Z,17.71
2022-08-29T05:47:28.632Z,17.83
2022-08-29T05:52:34.818Z,17.92
2022-08-29T05:57:40.698Z,17.97
2022-08-29T06:02:46.443Z,18.06
2022-08-29T06:07:53.563Z,18.20
2022-08-29T06:12:59.363Z,18.27
2022-08-29T06:18:06.939Z,18.32
2022-08-29T06:23:12.700Z,18.44
2022-08-29T06:28:19.761Z,18.55
2022-08-29T06:33:26.091Z,18.66
2022-08-29T06:38:31.565Z,18.81
2022-08-29T06:43:37.245Z,18.91
2022-08-29T06:48:42.882Z,18.97
2022-08-29T06:53:48.486Z,19.05
2022-08-29T06:58:55.078Z,19.17
2022-08-29T07:04:01.323Z,19.22
2022-08-29T07:09:08.111Z,19.22
2022-08-29T07:14:14.392Z,19.23
2022-08-29T07:19:19.960Z,19.16
2022-08-29T07:24:25.566Z,19.27
2022-08-29T07:29:31.186Z,19.28
2022-08-29T07:34:36.961Z,19.34
2022-08-29T07:39:42.628Z,19.45
2022-08-29T07:44:48.186Z,19.57
2022-08-29T07:49:54.165Z,19.65
2022-08-29T07:54:59.723Z,19.99
2022-08-29T08:00:08.215Z,20.08
2022-08-29T08:05:15.470Z,20.19
2022-08-29T08:10:21.443Z,20.23
2022-08-29T08:15:28.338Z,20.28
2022-08-29T08:20:34.115Z,20.22
2022-08-29T08:25:39.797Z,20.29
2022-08-29T08:30:45.525Z,20.36
2022-08-29T08:35:51.110Z,20.50
2022-08-29T08:41:08.551Z,20.52
2022-08-29T08:46:14.998Z,20.35
2022-08-29T08:51:23.496Z,20.32
2022-08-29T08:56:44.399Z,20.55
2022-08-29T09:01:59.173Z,20.74
2022-08-29T09:07:39.664Z,21.04
2022-08-29T09:13:22.295Z,21.13
2022-08-29T09:18:35.148Z,21.20
2022-08-29T09:23:52.507Z,21.25
2022-08-29T09:28:59.315Z,21.22
2022-08-29T09:34:15.619Z,21.36
2022-08-29T09:39:32.916Z,21.43
2022-08-29T09:44:39.300Z,21.60
2022-08-29T09:49:47.843Z,21.52
2022-08-29T09:54:53.406Z,21.77
2022-08-29T10:00:17.679Z,21.93
2022-08-29T10:05:46.819Z,22.05
2022-08-29T10:10:55.288Z,23.03
2022-08-29T10:16:15.589Z,22.64
2022-08-29T10:21:40.583Z,22.56
2022-08-29T10:27:07.339Z,22.68
2022-08-29T10:32:27.857Z,22.76
2022-08-29T10:37:48.380Z,22.81
2022-08-29T10:43:13.492Z,22.75
2022-08-29T10:48:22.099Z,22.99
2022-08-29T10:53:33.338Z,23.05
2022-08-29T10:59:17.997Z,23.02
2022-08-29T11:04:29.437Z,22.93
2022-08-29T11:09:47.677Z,22.92
2022-08-29T11:15:04.915Z,23.06
2022-08-29T11:20:23.182Z,23.01
2022-08-29T11:25:32.385Z,23.10
2022-08-29T11:30:56.010Z,22.98
2022-08-29T11:36:13.657Z,22.88
2022-08-29T11:41:40.253Z,22.67
2022-08-29T11:46:53.616Z,22.56
2022-08-29T11:51:59.683Z,22.65
2022-08-29T11:57:08.895Z,22.83
2022-08-29T12:02:32.484Z,22.96
2022-08-29T12:07:41.428Z,23.13
2022-08-29T12:12:51.250Z,23.20
2022-08-29T12:18:13.891Z,23.09
2022-08-29T12:23:25.840Z,22.88
2022-08-29T12:28:37.613Z,22.72
2022-08-29T12:34:02.905Z,22.41
2022-08-29T12:44:17.493Z,22.10
2022-08-29T12:49:32.095Z,22.13
2022-08-29T12:54:42.015Z,22.07
2022-08-29T12:59:52.139Z,22.07
2022-08-29T13:04:59.243Z,21.92
2022-08-29T13:10:06.861Z,21.67
2022-08-29T13:15:24.923Z,21.70
2022-08-29T13:20:50.028Z,21.94
2022-08-29T13:26:09.318Z,22.29
2022-08-29T13:31:21.572Z,22.38
2022-08-29T13:36:46.968Z,22.36
2022-08-29T13:42:10.676Z,22.57
2022-08-29T13:47:19.244Z,22.61
2022-08-29T13:52:25.683Z,22.29
2022-08-29T13:57:34.391Z,22.29
2022-08-29T14:02:45.239Z,22.19
2022-08-29T14:07:48.819Z,21.97
2022-08-29T14:12:54.534Z,21.74
2022-08-29T14:18:00.458Z,21.72
2022-08-29T14:23:07.459Z,21.78
2022-08-29T14:28:16.094Z,21.75
2022-08-29T14:33:20.536Z,21.53
2022-08-29T14:38:26.101Z,21.59
2022-08-29T14:43:34.241Z,21.48
2022-08-29T14:48:39.079Z,21.20
2022-08-29T14:53:54.080Z,21.01
2022-08-29T14:58:52.667Z,20.91
2022-08-29T15:03:58.357Z,20.93
2022-08-29T15:09:04.029Z,20.96
2022-08-29T15:14:09.933Z,20.91
2022-08-29T15:24:23.039Z,20.97
2022-08-29T15:29:30.450Z,20.98
2022-08-29T15:34:36.112Z,20.99
2022-08-29T15:39:42.413Z,20.99
2022-08-29T15:44:51.362Z,21.14
2022-08-29T15:49:56.079Z,20.99
2022-08-29T15:55:01.852Z,20.97
2022-08-29T16:00:09.128Z,20.78
2022-08-29T16:05:17.338Z,20.70
2022-08-29T16:10:23.145Z,20.71
2022-08-29T16:15:30.602Z,20.73
2022-08-29T16:20:38.027Z,20.77
2022-08-29T16:25:44.461Z,20.87
2022-08-29T16:30:51.776Z,20.76
2022-08-29T16:35:58.763Z,20.54
2022-08-29T16:41:10.373Z,20.55
2022-08-29T16:46:17.833Z,20.16
2022-08-29T16:51:25.761Z,20.79
2022-08-29T16:56:33.110Z,20.75
2022-08-29T17:01:43.201Z,20.84
2022-08-29T17:06:49.372Z,20.80
2022-08-29T17:11:56.235Z,20.71
2022-08-29T17:17:03.416Z,20.65
2022-08-29T17:22:10.660Z,20.54
2022-08-29T17:27:21.117Z,20.53
2022-08-29T17:32:23.834Z,20.43
2022-08-29T17:37:31.655Z,20.37
2022-08-29T17:42:38.236Z,20.29
2022-08-29T17:47:44.323Z,20.21
2022-08-29T17:52:50.127Z,20.16
2022-08-29T17:57:55.651Z,20.39
2022-08-29T18:03:01.492Z,20.17
2022-08-29T18:08:08.002Z,20.14
2022-08-29T18:13:15.138Z,20.16
2022-08-29T18:18:22.122Z,20.17
2022-08-29T18:23:27.668Z,20.06
2022-08-29T18:28:33.594Z,19.99
2022-08-29T18:33:59.521Z,20.09
2022-08-29T18:38:46.830Z,20.06
2022-08-29T18:43:53.496Z,19.95
2022-08-29T18:48:59.484Z,19.99
2022-08-29T18:54:06.079Z,20.07
2022-08-29T18:59:12.670Z,20.02
2022-08-29T19:04:20.297Z,19.88
2022-08-29T19:09:25.544Z,19.75
2022-08-29T19:14:31.521Z,19.74
2022-08-29T19:19:55.221Z,19.79
2022-08-29T19:25:01.509Z,19.80
2022-08-29T19:30:09.870Z,19.78
2022-08-29T19:35:16.542Z,19.82
2022-08-29T19:40:22.604Z,19.87
2022-08-29T19:45:28.602Z,19.93
2022-08-29T19:50:34.425Z,19.93
2022-08-29T19:55:40.810Z,19.85
2022-08-29T20:00:46.960Z,19.89
2022-08-29T20:05:53.388Z,19.93
2022-08-29T20:10:58.939Z,19.98
2022-08-29T20:16:06.506Z,19.96
2022-08-29T20:21:30.390Z,19.98
2022-08-29T20:26:38.150Z,19.99
2022-08-29T20:31:44.345Z,19.99
2022-08-29T20:37:07.826Z,19.99
2022-08-29T20:42:14.309Z,19.95
2022-08-29T20:47:21.841Z,19.94
2022-08-29T20:52:27.545Z,19.93
2022-08-29T20:57:33.981Z,19.78
2022-08-29T21:02:57.154Z,19.78
2022-08-29T21:08:03.430Z,19.81
2022-08-29T21:13:09.710Z,19.73
2022-08-29T21:18:20.284Z,19.74
2022-08-29T21:23:27.106Z,19.76
2022-08-29T21:28:33.455Z,19.76
2022-08-29T21:33:41.855Z,19.77
2022-08-29T21:38:48.835Z,19.75
2022-08-29T21:43:54.569Z,19.75
2022-08-29T21:49:04.025Z,19.74
2022-08-29T21:54:13.425Z,19.70
2022-08-29T21:59:18.078Z,19.75
2022-08-29T22:04:29.063Z,19.73
2022-08-29T22:09:32.735Z,19.69
2022-08-29T22:14:56.798Z,19.62
2022-08-29T22:20:02.399Z,19.69
2022-08-29T22:25:08.362Z,19.70
2022-08-29T22:30:15.248Z,19.79
2022-08-29T22:35:20.845Z,19.84
2022-08-29T22:40:27.567Z,19.83
2022-08-29T22:45:33.656Z,19.77
2022-08-29T22:50:39.267Z,19.78
2022-08-29T22:55:45.041Z,19.58
2022-08-29T23:00:50.600Z,19.52
2022-08-29T23:05:56.166Z,19.51
2022-08-29T23:11:01.627Z,19.47
2022-08-29T23:16:07.425Z,19.41
2022-08-29T23:21:13.171Z,19.43
2022-08-29T23:26:19.794Z,19.43
2022-08-29T23:31:26.010Z,19.47
2022-08-29T23:36:31.602Z,19.43
2022-08-29T23:41:38.292Z,19.40
2022-08-29T23:46:44.103Z,19.35
2022-08-29T23:51:49.623Z,19.34
2022-08-29T23:56:55.097Z,19.33
